< Cyclone 201921 2019 Season
Cyclone 201926 (Ann)
General InformationTrack Information on Google MapsDetailed Wind InformationList of All Images || ResourceGoogle EarthGE AnimationAtom FeedGeoJSON
Detalied Best Track (Time Zone = UTC)
Year Month Day Hour Lat. Long. Pressure (hPa) Wind (kt) Class Image Chart
2019 5 8 00 -10.2 162.1 1005 20 2 Image --
2019 5 8 06 -10.5 161.6 1004 20 2 Image --
2019 5 8 12 -10.7 161.5 1007 20 2 Image --
2019 5 8 18 -10.7 160.8 1008 20 2 Image --
2019 5 9 00 -10.8 160.6 1007 20 2 Image --
2019 5 9 06 -10.9 160.4 1006 20 2 Image --
2019 5 9 12 -11.1 160.2 1007 20 2 Image --
2019 5 9 18 -11.9 159.8 1008 20 2 Image --
2019 5 10 00 -12.1 159.5 1004 20 2 Image --
2019 5 10 06 -12.3 159.2 1007 20 2 Image --
2019 5 10 18 -14.6 159.4 1006 25 2 Image --
2019 5 11 00 -14.6 159.7 1005 25 2 Image --
2019 5 11 06 -15.4 159.7 1006 25 2 Image --
2019 5 11 12 -15.5 159.7 1001 30 2 Image --
2019 5 11 18 -16.1 159.1 1004 35 3 Image --
2019 5 12 00 -16.0 158.7 1003 45 3 Image --
2019 5 12 06 -16.2 158.3 998 45 3 Image --
2019 5 12 12 -15.9 157.1 998 45 3 Image --
2019 5 12 18 -15.7 155.7 993 50 4 Image --
2019 5 13 00 -15.3 154.5 993 50 4 Image --
2019 5 13 06 -15.4 153.0 996 45 3 Image --
2019 5 13 12 -15.1 151.5 998 40 3 Image --
2019 5 13 18 -14.9 150.3 998 40 3 Image --
2019 5 14 00 -14.4 149.2 999 35 3 Image --
2019 5 14 06 -14.4 147.6 1000.33 34.1667 0 Image --
2019 5 14 12 -13.8 146.2 1001.67 33.3333 0 Image --
2019 5 14 18 -13.0 145.0 1003 32.5 0 Image --
2019 5 15 00 -12.7 143.8 1004.33 31.6667 0 Image --
2019 5 15 06 -12.6 142.4 1005.67 30.8333 0 Image --
2019 5 15 12 -12.0 141.0 1007 30 2 Image --
2019 5 15 18 -11.6 139.5 1005 30 2 Image --
2019 5 16 00 -11.0 138.4 1008 30 2 Image --
2019 5 16 06 -11.0 137.0 1005 25 2 Image --
2019 5 16 12 -10.7 136.2 1007 25 2 Image --
2019 5 16 18 -10.0 135.1 1008.5 25 2 Image --
2019 5 17 00 -9.8 134.0 1010 25 2 Image --
2019 5 17 06 -9.5 132.8 1009.5 23.75 0 Image --
2019 5 17 12 -8.6 131.6 1009 22.5 0 Image --
2019 5 17 18 -7.8 130.5 1010 21.25 0 Image --
2019 5 18 00 -7.4 129.8 1011 20 2 Image --
2019 5 18 06 -7.3 129.0 1009 20 2 Image --
2019 5 18 12 -6.8 128.1 1009 0 0 Image --
< Cyclone 201921 2019 Season

Help